Time;durP1;ratioP1;P1;durP2;ratioP2;P2;SDS_P1;SDS_P2;PMS_P1;PMS_P2;Temp;Humidity;BMP_temperature;BMP_pressure;BME280_temperature;BME280_humidity;BME280_pressure;Samples;Min_cycle;Max_cycle;Signal;HPM_P1;HPM_P2
2022/09/21 00:01:34;;;;;;;29.27;16.38;;;9.20;1.00;;;9.92;100.00;99004.94;5062296;27;119289;-75
2022/09/21 00:04:04;;;;;;;24.50;15.45;;;9.20;1.00;;;9.95;100.00;99003.50;5061948;27;119274;-76
2022/09/21 00:06:36;;;;;;;25.83;15.63;;;9.20;1.00;;;9.92;100.00;99004.94;5060789;27;130053;-76
2022/09/21 00:09:07;;;;;;;25.13;15.35;;;9.20;1.00;;;9.88;100.00;99009.41;5051924;27;129964;-74
2022/09/21 00:11:37;;;;;;;24.38;14.93;;;9.10;1.00;;;9.84;100.00;99008.44;5060077;27;122042;-74
2022/09/21 00:14:09;;;;;;;23.60;15.45;;;9.20;1.00;;;9.85;100.00;99012.75;5061256;27;123197;-76
2022/09/21 00:16:39;;;;;;;27.23;16.67;;;9.20;1.00;;;9.82;100.00;99016.09;5059796;27;130233;-75
2022/09/21 00:19:08;;;;;;;27.27;16.55;;;9.20;1.00;;;9.82;100.00;99021.53;5045986;27;128090;-76
2022/09/21 00:21:38;;;;;;;29.73;17.45;;;9.20;1.00;;;9.80;100.00;99012.88;5062203;27;120349;-76
2022/09/21 00:24:07;;;;;;;27.85;17.02;;;9.20;1.00;;;9.78;100.00;99009.72;5061395;27;119571;-75
2022/09/21 00:26:37;;;;;;;26.48;15.75;;;9.10;1.00;;;9.77;100.00;99014.34;5060761;27;130925;-76
2022/09/21 00:29:06;;;;;;;30.75;17.92;;;9.10;1.00;;;9.78;100.00;99015.91;5061484;27;130405;-76
2022/09/21 00:31:36;;;;;;;31.58;18.40;;;9.10;1.00;;;9.75;100.00;99011.13;5061460;27;119677;-75
2022/09/21 00:34:06;;;;;;;25.73;15.85;;;9.10;1.00;;;9.70;100.00;99014.78;5046235;27;117935;-75
2022/09/21 00:36:35;;;;;;;27.88;17.25;;;9.10;1.00;;;9.71;100.00;99007.47;5059376;27;129860;-75
2022/09/21 00:39:04;;;;;;;31.67;18.13;;;9.10;1.00;;;9.67;100.00;99010.00;5060718;27;129671;-74
2022/09/21 00:41:36;;;;;;;33.53;17.67;;;9.10;1.00;;;9.66;100.00;99008.44;5046173;27;119115;-75
2022/09/21 00:44:30;;;;;;;25.52;16.05;;;9.10;1.00;;;9.62;100.00;99012.88;5061246;27;119722;-73
2022/09/21 00:47:07;;;;;;;31.33;16.10;;;9.00;1.00;;;9.62;100.00;99012.88;5042189;27;129851;-74
2022/09/21 00:49:36;;;;;;;28.38;17.33;;;9.00;1.00;;;9.63;100.00;99003.66;5060702;27;130093;-72
2022/09/21 00:52:07;;;;;;;38.40;17.10;;;9.00;1.00;;;9.61;100.00;99016.69;5042732;27;119646;-73
2022/09/21 00:54:43;;;;;;;28.33;17.02;;;9.00;1.00;;;9.58;100.00;99011.91;5061512;27;119611;-74
2022/09/21 00:57:15;;;;;;;30.10;16.38;;;9.00;1.00;;;9.62;100.00;99012.88;5045417;27;128851;-74
2022/09/21 00:59:45;;;;;;;28.70;16.08;;;9.00;1.00;;;9.66;100.00;99008.44;5060400;27;129515;-74
2022/09/21 01:02:14;;;;;;;24.73;15.60;;;9.10;1.00;;;9.65;100.00;99006.03;5036998;27;120821;-74
2022/09/21 01:04:43;;;;;;;28.55;16.80;;;9.00;1.00;;;9.64;100.00;99013.34;5035860;27;122282;-74
2022/09/21 01:07:17;;;;;;;25.90;15.80;;;9.00;1.00;;;9.62;100.00;99010.16;5041923;27;129774;-74
2022/09/21 01:09:50;;;;;;;26.27;17.20;;;9.10;1.00;;;9.65;100.00;99004.13;5039793;27;130208;-74
2022/09/21 01:12:38;;;;;;;31.08;15.45;;;9.10;1.00;;;9.65;100.00;99006.84;5040379;27;119825;-74
2022/09/21 01:15:26;;;;;;;26.65;16.52;;;9.00;1.00;;;9.56;100.00;99013.34;5040275;27;119582;-74
2022/09/21 01:18:08;;;;;;;23.30;14.80;;;9.00;1.00;;;9.61;100.00;99011.28;5038757;27;130355;-74
2022/09/21 01:21:19;;;;;;;26.90;14.73;;;9.00;1.00;;;9.59;100.00;99015.44;5040332;27;129423;-74
2022/09/21 01:24:41;;;;;;;24.30;15.05;;;9.00;1.00;;;9.60;100.00;99015.13;5040002;27;120639;-73
2022/09/21 01:27:57;;;;;;;25.52;14.52;;;9.00;1.00;;;9.61;100.00;99016.69;5042907;27;119854;-73
2022/09/21 01:30:30;;;;;;;23.60;15.07;;;9.00;1.00;;;9.66;100.00;99013.03;5040447;27;131023;-73
2022/09/21 01:33:06;;;;;;;21.60;14.10;;;9.00;1.00;;;9.67;100.00;99015.44;5041631;27;129201;-72
2022/09/21 01:35:41;;;;;;;25.45;14.60;;;9.00;1.00;;;9.69;100.00;99024.06;5038526;27;119650;-73
2022/09/21 01:38:14;;;;;;;30.63;15.07;;;9.00;1.00;;;9.70;100.00;99025.63;5039874;27;119445;-73
2022/09/21 01:40:47;;;;;;;24.38;15.32;;;9.00;1.00;;;9.68;100.00;99019.75;5039287;27;130181;-72
2022/09/21 01:43:24;;;;;;;25.17;15.98;;;9.00;1.00;;;9.59;100.00;99029.75;5039585;27;129602;-72
2022/09/21 01:45:58;;;;;;;23.77;14.35;;;8.90;1.00;;;9.60;100.00;99025.13;5040151;27;119781;-72
2022/09/21 01:48:27;;;;;;;23.30;14.45;;;9.00;1.00;;;9.64;100.00;99021.47;5042165;27;119259;-71
2022/09/21 01:50:57;;;;;;;24.63;14.80;;;9.00;1.00;;;9.69;100.00;99031.38;5039493;27;130278;-73
2022/09/21 01:53:33;;;;;;;22.02;14.73;;;9.00;1.00;;;9.71;100.00;99035.38;5039471;27;129505;-74
2022/09/21 01:56:07;;;;;;;22.67;14.93;;;9.00;1.00;;;9.73;100.00;99028.84;5038313;27;122311;-74
2022/09/21 01:58:42;;;;;;;24.90;14.02;;;9.00;1.00;;;9.68;100.00;99033.28;5039549;27;122401;-73
2022/09/21 02:01:18;;;;;;;20.85;14.45;;;9.00;1.00;;;9.65;100.00;99038.56;5041324;27;130259;-73
2022/09/21 02:03:53;;;;;;;22.35;14.35;;;9.00;1.00;;;9.61;100.00;99038.38;5059651;27;129658;-73
2022/09/21 02:06:22;;;;;;;22.73;14.05;;;8.90;1.00;;;9.56;100.00;99041.22;5060156;27;119626;-74
2022/09/21 02:08:51;;;;;;;20.67;13.77;;;8.90;1.00;;;9.52;100.00;99034.84;5060015;27;119327;-73
2022/09/21 02:11:20;;;;;;;22.92;13.88;;;8.90;1.00;;;9.47;100.00;99037.72;5059624;27;130430;-73
2022/09/21 02:13:53;;;;;;;21.75;13.30;;;8.90;1.00;;;9.41;100.00;99038.97;5060108;27;130059;-74
2022/09/21 02:16:38;;;;;;;21.75;13.02;;;8.90;1.00;;;9.39;100.00;99038.50;5059813;27;120434;-74
2022/09/21 02:19:14;;;;;;;20.02;13.38;;;8.80;1.00;;;9.38;100.00;99045.81;5059711;27;119787;-73
2022/09/21 02:22:02;;;;;;;21.08;13.13;;;8.90;1.00;;;9.35;100.00;99044.53;5043085;27;130120;-73
2022/09/21 02:24:41;;;;;;;25.55;14.32;;;8.90;1.00;;;9.38;100.00;99055.84;5059524;27;129429;-73
2022/09/21 02:27:24;;;;;;;23.00;14.05;;;8.90;1.00;;;9.37;100.00;99051.56;5059755;27;119941;-72
2022/09/21 02:30:00;;;;;;;25.90;15.10;;;8.90;1.00;;;9.39;100.00;99052.03;5062363;27;120933;-73
2022/09/21 02:32:38;;;;;;;25.85;15.20;;;8.90;1.00;;;9.37;100.00;99048.84;5062766;27;130948;-72
2022/09/21 02:35:16;;;;;;;28.58;16.45;;;8.90;1.00;;;9.43;100.00;99058.44;5062689;27;129430;-72
2022/09/21 02:37:54;;;;;;;26.40;15.10;;;8.90;1.00;;;9.41;100.00;99052.50;5063122;27;120029;-73
2022/09/21 02:40:29;;;;;;;29.63;15.93;;;8.90;1.00;;;9.39;100.00;99052.81;5063410;27;119344;-73
2022/09/21 02:43:01;;;;;;;36.90;18.83;;;8.80;1.00;;;9.40;100.00;99059.06;5047741;27;129878;-73
2022/09/21 02:45:36;;;;;;;31.92;16.73;;;8.80;1.00;;;9.39;100.00;99063.66;5062352;27;130206;-73
2022/09/21 02:48:09;;;;;;;28.10;16.45;;;8.80;1.00;;;9.39;100.00;99068.28;5063566;27;121278;-73
2022/09/21 02:50:46;;;;;;;33.60;17.55;;;8.80;1.00;;;9.39;100.00;99060.16;5062843;27;122044;-72
2022/09/21 02:53:19;;;;;;;31.27;16.90;;;8.80;1.00;;;9.41;100.00;99060.63;5062364;27;130238;-73
2022/09/21 02:55:50;;;;;;;32.53;19.40;;;8.80;1.00;;;9.42;100.00;99062.25;5044239;27;130591;-73
2022/09/21 02:58:21;;;;;;;30.80;17.35;;;8.80;1.00;;;9.39;100.00;99062.88;5063176;27;119761;-73
2022/09/21 03:00:50;;;;;;;29.65;16.95;;;8.80;1.00;;;9.39;100.00;99065.56;5062784;27;119561;-73
2022/09/21 03:03:23;;;;;;;32.03;18.13;;;8.80;1.00;;;9.42;100.00;99062.25;5064995;27;129921;-73
2022/09/21 03:05:55;;;;;;;28.95;17.20;;;8.80;1.00;;;9.46;100.00;99068.63;5047663;27;129369;-73
2022/09/21 03:08:23;;;;;;;36.08;18.70;;;8.80;1.00;;;9.47;100.00;99064.78;5062458;27;119591;-73
2022/09/21 03:10:53;;;;;;;29.75;16.45;;;8.80;1.00;;;9.47;100.00;99065.59;5047341;27;119410;-73
2022/09/21 03:13:21;;;;;;;30.52;17.48;;;8.80;1.00;;;9.50;100.00;99066.88;5060999;27;130066;-72
2022/09/21 03:15:50;;;;;;;28.95;17.40;;;8.80;1.00;;;9.52;100.00;99067.34;5062287;27;129792;-71
2022/09/21 03:18:20;;;;;;;29.13;17.33;;;8.80;1.00;;;9.49;100.00;99070.69;5062413;27;119588;-71
2022/09/21 03:20:49;;;;;;;29.15;16.77;;;8.80;1.00;;;9.49;100.00;99073.38;5062632;27;119379;-73
2022/09/21 03:23:17;;;;;;;32.80;17.35;;;8.80;1.00;;;9.49;100.00;99062.56;5062031;27;130038;-73
2022/09/21 03:25:47;;;;;;;29.55;16.48;;;8.80;1.00;;;9.51;100.00;99065.78;5061739;27;130271;-72
2022/09/21 03:28:16;;;;;;;29.98;17.17;;;8.80;1.00;;;9.47;100.00;99067.50;5043662;27;119611;-73
2022/09/21 03:30:44;;;;;;;31.92;17.42;;;8.80;1.00;;;9.47;100.00;99070.22;5062436;27;119950;-73
2022/09/21 03:33:12;;;;;;;28.75;17.58;;;8.80;1.00;;;9.44;100.00;99076.25;5062142;27;130024;-75
2022/09/21 03:35:43;;;;;;;34.22;18.50;;;8.80;1.00;;;9.46;100.00;99079.47;5046385;27;129228;-74
2022/09/21 03:38:12;;;;;;;32.22;17.25;;;8.80;1.00;;;9.42;100.00;99073.06;5060796;27;122264;-74
2022/09/21 03:40:40;;;;;;;32.38;17.35;;;8.80;1.00;;;9.43;100.00;99080.09;5043066;27;122456;-74
2022/09/21 03:43:09;;;;;;;31.60;16.92;;;8.80;1.00;;;9.44;100.00;99077.06;5061904;27;131167;-75
2022/09/21 03:45:39;;;;;;;32.15;17.35;;;8.70;1.00;;;9.46;100.00;99080.25;5046699;27;129600;-74
2022/09/21 03:48:10;;;;;;;33.10;18.40;;;8.80;1.00;;;9.47;100.00;99081.03;5046850;27;119236;-74
2022/09/21 03:50:39;;;;;;;32.17;17.67;;;8.70;1.00;;;9.48;100.00;99088.06;5046659;27;119212;-75
2022/09/21 03:53:10;;;;;;;31.77;18.13;;;8.80;1.00;;;9.47;100.00;99081.03;5061313;27;129980;-74
2022/09/21 03:55:39;;;;;;;33.08;17.70;;;8.80;1.00;;;9.46;100.00;99080.25;5062012;27;130348;-74
2022/09/21 03:58:08;;;;;;;32.28;18.17;;;8.80;1.00;;;9.47;100.00;99081.03;5061786;27;119704;-75
2022/09/21 04:00:38;;;;;;;32.08;18.25;;;8.80;1.00;;;9.45;100.00;99084.06;5043622;27;119452;-74
2022/09/21 04:03:06;;;;;;;31.73;17.67;;;8.80;1.00;;;9.46;100.00;99090.31;5063366;27;130232;-75
2022/09/21 04:05:35;;;;;;;31.77;18.25;;;8.80;1.00;;;9.50;100.00;99085.84;5061216;27;129635;-75
2022/09/21 04:08:03;;;;;;;36.65;19.45;;;8.80;1.00;;;9.52;100.00;99084.41;5061475;27;120553;-77
2022/09/21 04:10:33;;;;;;;33.55;19.95;;;8.80;1.00;;;9.49;100.00;99076.09;5043605;27;119659;-76
2022/09/21 04:13:03;;;;;;;34.15;19.70;;;8.80;1.00;;;9.47;100.00;99081.88;5046228;27;129829;-75
2022/09/21 04:15:31;;;;;;;32.53;17.42;;;8.80;1.00;;;9.52;100.00;99084.41;5061040;27;129828;-75
2022/09/21 04:18:01;;;;;;;33.97;18.45;;;8.90;1.00;;;9.56;100.00;99081.09;5061254;27;119342;-75
2022/09/21 04:20:30;;;;;;;32.63;18.15;;;8.80;1.00;;;9.61;100.00;99072.81;5061911;27;120019;-76
2022/09/21 04:22:58;;;;;;;36.50;20.45;;;8.90;1.00;;;9.64;100.00;99086.50;5061271;27;130749;-75
2022/09/21 04:25:27;;;;;;;37.42;22.23;;;8.90;1.00;;;9.66;100.00;99073.47;5059661;27;129626;-75
2022/09/21 04:27:57;;;;;;;36.38;19.98;;;8.90;1.00;;;9.67;100.00;99080.47;5059773;27;121787;-77
2022/09/21 04:30:25;;;;;;;35.22;20.42;;;8.90;1.00;;;9.70;100.00;99079.81;5061046;27;122790;-76
2022/09/21 04:32:54;;;;;;;29.00;17.73;;;8.90;1.00;;;9.69;100.00;99091.78;5060963;27;129906;-76
2022/09/21 04:35:22;;;;;;;30.15;17.52;;;8.90;1.00;;;9.71;100.00;99084.13;5060941;27;129459;-75
2022/09/21 04:37:54;;;;;;;26.95;16.63;;;9.00;1.00;;;9.74;100.00;99098.16;5059699;27;119546;-77
2022/09/21 04:40:23;;;;;;;27.23;16.48;;;9.00;1.00;;;9.73;100.00;99091.16;5061494;27;119707;-75
2022/09/21 04:42:52;;;;;;;30.27;17.90;;;9.00;1.00;;;9.73;100.00;99096.59;5045494;27;129237;-75
2022/09/21 04:45:23;;;;;;;25.83;15.18;;;9.00;1.00;;;9.75;100.00;99102.47;5061383;27;129626;-72
2022/09/21 04:47:52;;;;;;;28.80;16.65;;;9.00;1.00;;;9.75;100.00;99091.63;5061192;27;119837;-73
2022/09/21 04:50:21;;;;;;;27.10;16.13;;;9.00;1.00;;;9.78;100.00;99091.00;5061182;27;119852;-72
2022/09/21 04:52:50;;;;;;;27.02;16.60;;;9.00;1.00;;;9.81;100.00;99093.09;5059508;27;130289;-74
2022/09/21 04:55:19;;;;;;;26.33;15.35;;;9.10;1.00;;;9.89;100.00;99097.72;5060431;27;129576;-73
2022/09/21 04:57:47;;;;;;;24.23;14.80;;;9.10;1.00;;;9.98;100.00;99090.41;5059603;27;119703;-74
2022/09/21 05:00:17;;;;;;;25.83;15.73;;;9.20;1.00;;;9.98;100.00;99106.66;5060606;27;119128;-75
2022/09/21 05:02:47;;;;;;;26.30;15.25;;;9.10;1.00;;;10.07;100.00;99107.47;5062702;27;130253;-73
2022/09/21 05:05:16;;;;;;;24.30;14.52;;;9.20;1.00;;;10.13;100.00;99107.31;5060684;27;130009;-74
2022/09/21 05:07:44;;;;;;;25.38;15.38;;;9.20;1.00;;;10.21;100.00;99104.63;5060890;27;119987;-73
2022/09/21 05:10:12;;;;;;;24.02;15.00;;;9.30;1.00;;;10.30;100.00;99110.06;5061188;27;119581;-77
2022/09/21 05:12:41;;;;;;;23.88;14.55;;;9.30;1.00;;;10.34;100.00;99104.81;5060425;27;130501;-73
2022/09/21 05:15:11;;;;;;;22.58;14.65;;;9.40;1.00;;;10.43;100.00;99111.03;5042796;27;129859;-73
2022/09/21 05:17:40;;;;;;;23.38;14.77;;;9.40;1.00;;;10.51;100.00;99109.44;5059435;27;122139;-72
2022/09/21 05:20:12;;;;;;;24.27;14.27;;;9.40;1.00;;;10.61;100.00;99103.66;5060654;27;121968;-73
2022/09/21 05:22:40;;;;;;;22.50;13.98;;;9.60;1.00;;;10.63;100.00;99104.16;5060180;27;130499;-73
2022/09/21 05:25:10;;;;;;;21.50;13.32;;;9.60;1.00;;;10.72;100.00;99101.41;5060123;27;129496;-74
2022/09/21 05:27:38;;;;;;;22.63;13.02;;;9.60;1.00;;;10.76;100.00;99103.16;5063513;27;121429;-73
2022/09/21 05:30:09;;;;;;;22.10;13.98;;;9.60;1.00;;;10.89;100.00;99106.00;5060587;27;119321;-75
2022/09/21 05:32:48;;;;;;;27.08;14.18;;;9.60;1.00;;;10.91;100.00;99109.22;5045539;27;129791;-74
2022/09/21 05:35:29;;;;;;;20.85;12.98;;;9.70;1.00;;;10.94;100.00;99119.44;5061030;27;129283;-74
2022/09/21 05:38:03;;;;;;;20.73;12.85;;;9.70;1.00;;;11.07;100.00;99117.63;5060456;27;120259;-72
2022/09/21 05:40:32;;;;;;;19.63;12.25;;;9.80;1.00;;;11.18;100.00;99112.66;5060644;27;119667;-74
2022/09/21 05:43:02;;;;;;;21.08;13.27;;;9.90;1.00;;;11.23;100.00;99110.53;5058851;27;129928;-73
2022/09/21 05:45:32;;;;;;;18.88;12.68;;;10.00;1.00;;;11.30;100.00;99110.06;5060026;27;130140;-73
2022/09/21 05:48:14;;;;;;;21.02;13.18;;;10.10;1.00;;;11.35;100.00;99115.31;5060387;27;119646;-74
2022/09/21 05:50:55;;;;;;;21.65;14.18;;;10.00;1.00;;;11.14;100.00;99113.31;5060280;27;119761;-72
2022/09/21 05:53:49;;;;;;;18.00;11.77;;;10.00;99.90;;;11.07;100.00;99115.72;5059732;27;130007;-72
2022/09/21 05:56:36;;;;;;;20.27;12.35;;;9.80;99.90;;;10.92;100.00;99116.22;5060356;27;131199;-72
2022/09/21 05:59:35;;;;;;;18.88;12.23;;;9.80;99.90;;;10.83;100.00;99113.56;5045206;27;119073;-73
2022/09/21 06:02:17;;;;;;;17.63;11.52;;;9.80;99.90;;;10.91;100.00;99114.66;5061413;27;119432;-72
2022/09/21 06:04:48;;;;;;;20.35;12.75;;;9.90;99.90;;;10.93;100.00;99123.25;5062253;27;130202;-76
2022/09/21 06:07:18;;;;;;;17.90;11.02;;;10.00;99.90;;;11.07;100.00;99113.00;5063360;27;129595;-74
2022/09/21 06:09:47;;;;;;;15.30;10.38;;;10.10;99.90;;;11.14;100.00;99118.75;5062336;27;122399;-74
2022/09/21 06:12:16;;;;;;;19.67;10.95;;;10.10;99.90;;;11.29;100.00;99119.31;5062975;27;122406;-77
2022/09/21 06:14:44;;;;;;;15.55;9.80;;;10.20;99.90;;;11.48;100.00;99111.59;5063314;27;129878;-73
2022/09/21 06:17:13;;;;;;;16.60;9.95;;;10.20;99.90;;;11.56;100.00;99115.38;5047865;27;129093;-74
2022/09/21 06:19:41;;;;;;;14.35;9.20;;;10.40;99.90;;;11.56;100.00;99117.28;5063383;27;119868;-75
2022/09/21 06:22:10;;;;;;;12.90;8.80;;;10.30;99.90;;;11.20;100.00;99121.28;5063739;27;119317;-74
2022/09/21 06:24:39;;;;;;;12.95;8.73;;;10.20;99.90;;;11.22;100.00;99124.44;5066021;27;132186;-74
2022/09/21 06:27:08;;;;;;;13.07;8.88;;;10.30;99.90;;;11.19;100.00;99119.66;5048555;27;129895;-74
2022/09/21 06:29:36;;;;;;;13.70;9.43;;;10.40;99.90;;;11.31;100.00;99122.50;5063456;27;119656;-73
2022/09/21 06:32:05;;;;;;;14.10;8.98;;;10.40;99.90;;;11.33;100.00;99118.34;5063423;27;119322;-73
2022/09/21 06:34:35;;;;;;;17.48;10.10;;;10.40;99.90;;;11.46;100.00;99121.97;5061767;27;129870;-73
2022/09/21 06:37:04;;;;;;;15.10;9.15;;;10.50;99.90;;;11.47;100.00;99131.72;5062960;27;129831;-73
2022/09/21 06:39:33;;;;;;;12.20;8.57;;;10.50;99.90;;;11.33;100.00;99126.50;5044981;27;119700;-74
2022/09/21 06:42:03;;;;;;;12.38;8.07;;;10.50;99.90;;;11.46;100.00;99124.69;5063454;27;119829;-73
2022/09/21 06:44:32;;;;;;;12.85;7.95;;;10.70;99.90;;;11.30;100.00;99124.44;5062877;27;131109;-74
2022/09/21 06:47:00;;;;;;;11.40;8.30;;;10.60;99.90;;;11.45;100.00;99114.94;5048157;27;128576;-74
2022/09/21 06:49:29;;;;;;;11.07;7.72;;;10.70;99.90;;;11.57;100.00;99119.69;5062613;27;119786;-74
2022/09/21 06:51:57;;;;;;;10.98;7.85;;;10.80;99.90;;;11.88;100.00;99119.34;5061857;27;119572;-74
2022/09/21 06:54:26;;;;;;;15.27;7.57;;;11.10;99.90;;;11.88;100.00;99113.91;5044616;27;129536;-72
2022/09/21 06:56:55;;;;;;;13.77;8.40;;;11.00;99.90;;;11.60;100.00;99124.47;5060642;27;129605;-73
2022/09/21 06:59:25;;;;;;;13.50;8.50;;;10.80;99.90;;;11.31;100.00;99122.50;5029940;27;121869;-76
2022/09/21 07:01:57;;;;;;;13.55;8.85;;;10.60;99.90;;;11.31;100.00;99123.31;5062676;27;122036;-74
2022/09/21 07:04:27;;;;;;;15.80;10.82;;;10.60;99.90;;;11.19;100.00;99133.25;5062410;27;130965;-71
2022/09/21 07:06:56;;;;;;;20.52;14.27;;;10.50;99.90;;;11.18;100.00;99131.66;5062157;27;130152;-72
2022/09/21 07:09:24;;;;;;;14.32;10.05;;;10.60;99.90;;;11.27;100.00;99132.44;5047689;27;118698;-72
2022/09/21 07:11:53;;;;;;;11.52;8.05;;;10.70;99.90;;;11.29;100.00;99135.63;5062563;27;119698;-74
2022/09/21 07:14:22;;;;;;;10.88;7.95;;;10.60;99.90;;;11.19;100.00;99138.69;5061829;27;130707;-71
2022/09/21 07:16:53;;;;;;;11.55;8.00;;;10.50;99.90;;;11.11;100.00;99132.97;5061557;27;130238;-72
2022/09/21 07:19:22;;;;;;;10.07;7.38;;;10.50;99.90;;;11.14;100.00;99137.75;5062442;27;119634;-71
2022/09/21 07:21:53;;;;;;;9.85;7.32;;;10.50;99.90;;;11.20;100.00;99138.34;5064263;27;118703;-71
2022/09/21 07:24:22;;;;;;;13.57;8.25;;;10.60;99.90;;;11.36;100.00;99141.34;5061001;27;130831;-71
2022/09/21 07:26:51;;;;;;;12.73;8.48;;;10.70;99.90;;;11.60;100.00;99135.31;5062028;27;129763;-73
2022/09/21 07:29:20;;;;;;;9.80;7.45;;;10.80;99.90;;;11.78;100.00;99135.25;5061970;27;119604;-72
2022/09/21 07:31:48;;;;;;;12.13;8.55;;;10.90;99.90;;;11.88;100.00;99132.94;5044015;27;119272;-71
2022/09/21 07:34:18;;;;;;;12.95;9.35;;;11.00;99.90;;;12.04;100.00;99135.13;5060789;27;130652;-71
2022/09/21 07:36:47;;;;;;;12.18;8.55;;;11.10;99.90;;;12.26;100.00;99144.09;5061544;27;129582;-71
2022/09/21 07:39:15;;;;;;;10.35;7.55;;;11.20;99.90;;;12.62;100.00;99145.41;5061933;27;119554;-76
2022/09/21 07:41:44;;;;;;;10.10;7.75;;;11.40;99.90;;;12.87;100.00;99147.13;5062504;27;119359;-73
2022/09/21 07:44:13;;;;;;;11.88;7.82;;;11.50;99.90;;;13.04;100.00;99139.88;5061702;27;131173;-74
2022/09/21 07:46:41;;;;;;;11.25;8.32;;;11.50;99.90;;;13.26;100.00;99146.84;5061552;27;129509;-72
2022/09/21 07:49:12;;;;;;;7.80;5.93;;;11.70;99.90;;;13.44;100.00;99137.38;5060440;27;122126;-73
2022/09/21 07:51:42;;;;;;;8.60;5.63;;;11.70;99.90;;;13.20;100.00;99143.56;5061908;27;121393;-73
2022/09/21 07:54:13;;;;;;;6.72;4.82;;;11.70;99.90;;;13.15;100.00;99145.69;5061398;27;129850;-73
2022/09/21 07:59:04;;;;;;;8.07;4.85;;;11.80;99.90;;;13.32;100.00;99153.69;5061471;27;130351;-73
2022/09/21 07:59:31;;;;;;;9.30;5.50;;;11.90;99.90;;;13.47;100.00;99155.00;5061933;27;119794;-74
2022/09/21 08:02:00;;;;;;;7.85;4.75;;;12.20;99.90;;;13.73;100.00;99159.31;5062471;27;119319;-74
2022/09/21 08:04:28;;;;;;;9.48;5.13;;;12.30;99.90;;;13.56;99.61;99160.34;5061481;27;129870;-74
2022/09/21 08:06:59;;;;;;;7.43;5.25;;;12.10;99.90;;;13.68;100.00;99157.63;5061665;27;129267;-74
2022/09/21 08:09:27;;;;;;;7.07;5.05;;;12.20;99.90;;;13.83;99.96;99156.16;5061783;27;120716;-73
2022/09/21 08:12:00;;;;;;;8.27;5.90;;;12.30;99.90;;;14.02;98.88;99150.91;5046829;27;118229;-73
2022/09/21 08:14:28;;;;;;;8.77;6.43;;;12.40;99.90;;;13.97;97.32;99155.78;5060185;27;130629;-75
2022/09/21 08:16:57;;;;;;;8.48;6.72;;;12.40;99.90;;;13.71;97.94;99162.38;5061418;27;130517;-74
2022/09/21 08:19:25;;;;;;;9.43;6.50;;;12.30;99.90;;;13.81;97.19;99155.69;5061814;27;120887;-74
2022/09/21 08:21:54;;;;;;;8.60;5.43;;;12.50;99.90;;;13.85;96.18;99162.03;5061460;27;119324;-76
2022/09/21 08:24:25;;;;;;;7.32;4.40;;;12.40;99.90;;;13.78;96.68;99153.66;5061224;27;130062;-73
2022/09/21 08:26:54;;;;;;;6.80;4.53;;;12.40;99.90;;;13.93;96.98;99158.41;5060791;27;130429;-74
2022/09/21 08:29:23;;;;;;;5.82;4.47;;;12.50;99.90;;;13.89;95.73;99152.03;5061504;27;120669;-73
2022/09/21 08:31:52;;;;;;;6.53;4.80;;;12.50;99.90;;;14.12;97.41;99165.22;5061847;27;119685;-73
2022/09/21 08:34:22;;;;;;;6.00;4.25;;;12.80;99.90;;;14.24;96.41;99157.00;5061041;27;130342;-73
2022/09/21 08:36:50;;;;;;;7.10;5.03;;;12.90;99.90;;;14.61;94.16;99165.13;5061263;27;129622;-77
2022/09/21 08:39:18;;;;;;;7.47;5.03;;;13.00;99.90;;;14.29;95.57;99164.97;5060169;27;122159;-74
2022/09/21 08:42:13;;;;;;;6.68;4.45;;;12.70;99.90;;;13.94;97.48;99165.44;5061285;27;123426;-74
2022/09/21 08:44:48;;;;;;;6.30;4.75;;;12.70;99.90;;;14.34;96.08;99164.72;5061009;27;130501;-75
2022/09/21 08:47:21;;;;;;;5.25;3.75;;;12.60;99.90;;;13.92;94.98;99154.09;5060984;27;129854;-74
2022/09/21 08:49:58;;;;;;;5.97;3.92;;;12.40;99.90;;;13.89;98.44;99157.50;5061385;27;120250;-76
2022/09/21 08:52:27;;;;;;;5.80;4.13;;;12.70;99.90;;;13.96;97.94;99157.75;5061194;27;119578;-76
2022/09/21 08:55:00;;;;;;;9.13;5.15;;;12.80;99.90;;;13.86;96.45;99157.41;5061160;27;130045;-75
2022/09/21 08:57:34;;;;;;;5.50;3.53;;;12.70;99.90;;;13.93;96.80;99163.06;5061472;27;129715;-75
2022/09/21 09:00:13;;;;;;;5.32;3.72;;;12.70;99.90;;;14.18;95.17;99164.66;5045550;27;117847;-74
2022/09/21 09:03:12;;;;;;;5.07;2.95;;;12.90;99.90;;;14.46;94.89;99160.34;5062877;27;119409;-74
2022/09/21 09:05:51;;;;;;;4.45;2.95;;;13.00;99.90;;;13.88;94.94;99164.09;5059605;27;129901;-76
2022/09/21 09:09:02;;;;;;;11.32;3.47;;;12.80;96.00;;;13.88;95.84;99155.91;5065584;27;102969;-77
2022/09/21 09:11:57;;;;;;;4.65;3.00;;;12.80;99.90;;;14.00;96.19;99155.91;5060833;27;120130;-75
2022/09/21 09:14:54;;;;;;;4.75;3.15;;;12.90;99.90;;;14.59;92.49;99169.34;5058681;27;119207;-76
2022/09/21 09:17:36;;;;;;;4.13;2.53;;;13.20;93.80;;;14.21;91.50;99157.72;5061305;27;130877;-77
2022/09/21 09:20:13;;;;;;;5.25;3.15;;;12.90;90.90;;;14.16;91.94;99168.84;5061038;27;129491;-75
2022/09/21 09:22:48;;;;;;;10.45;3.40;;;12.90;83.70;;;13.86;95.44;99158.19;5061117;27;119810;-75
2022/09/21 09:25:21;;;;;;;4.80;3.10;;;12.80;99.90;;;14.19;94.93;99149.06;5061003;27;119282;-76
2022/09/21 09:27:54;;;;;;;5.13;3.13;;;13.10;95.20;;;14.42;93.45;99154.81;5060327;27;131121;-76
2022/09/21 09:30:26;;;;;;;6.88;3.25;;;13.30;91.10;;;14.57;93.22;99159.53;5060427;27;129628;-76
2022/09/21 09:33:01;;;;;;;5.85;3.17;;;13.50;91.20;;;14.66;91.88;99156.72;5059364;27;122787;-77
2022/09/21 09:35:35;;;;;;;5.78;3.67;;;13.40;85.30;;;14.43;93.43;99163.78;5060501;27;121902;-77
2022/09/21 09:38:14;;;;;;;5.72;3.33;;;13.30;92.00;;;14.48;95.77;99156.16;5059193;27;130556;-76
2022/09/21 09:41:03;;;;;;;5.22;3.30;;;13.50;99.00;;;14.41;94.79;99166.06;5061724;27;128583;-76
2022/09/21 09:43:46;;;;;;;15.88;3.30;;;13.40;91.10;;;14.08;93.41;99153.41;5060948;27;119439;-75
2022/09/21 09:46:30;;;;;;;6.93;3.15;;;13.10;85.00;;;13.91;96.11;99157.16;5060919;27;120280;-79
2022/09/21 09:49:17;;;;;;;4.75;3.05;;;13.10;91.00;;;14.24;95.37;99162.44;5059984;27;129901;-76
2022/09/21 09:51:47;;;;;;;9.55;4.63;;;13.50;91.20;;;15.22;86.75;99161.34;5060291;27;129529;-76
2022/09/21 09:54:19;;;;;;;12.77;7.25;;;14.00;21.20;;;15.31;86.70;99163.88;5060557;27;119711;-76
2022/09/21 09:56:47;;;;;;;22.75;12.07;;;14.10;36.00;;;15.35;83.79;99164.78;5060534;27;119650;-78
2022/09/21 09:59:27;;;;;;;11.38;6.45;;;14.10;4.10;;;15.33;85.46;99161.59;5058893;27;130802;-76
2022/09/21 10:02:07;;;;;;;12.45;7.13;;;14.10;31.90;;;15.62;82.79;99165.06;5067292;27;130496;-74
2022/09/21 10:04:35;;;;;;;11.43;5.82;;;14.30;9.20;;;15.61;83.24;99166.19;5081606;27;120203;-79
2022/09/21 10:07:04;;;;;;;6.65;3.90;;;14.40;1.00;;;15.81;82.12;99159.66;5081201;27;119629;-76
2022/09/21 10:09:34;;;;;;;4.70;2.60;;;14.50;2.80;;;15.98;80.09;99163.19;5080669;27;130054;-77
2022/09/21 10:12:20;;;;;;;2.95;2.10;;;14.70;1.00;;;15.74;79.26;99159.50;5081127;27;130577;-78
2022/09/21 10:14:51;;;;;;;3.67;2.05;;;14.40;1.00;;;15.66;80.95;99152.28;5081143;27;120148;-79
2022/09/21 10:17:24;;;;;;;2.80;1.60;;;14.40;1.00;;;15.33;77.52;99152.59;5081832;27;120014;-76
2022/09/21 10:20:01;;;;;;;2.75;1.38;;;14.10;1.00;;;14.86;81.49;99156.84;5081037;27;129749;-78
2022/09/21 10:22:30;;;;;;;3.08;1.80;;;13.80;1.00;;;14.78;80.31;99150.38;5065990;27;129256;-77
2022/09/21 10:25:00;;;;;;;2.58;1.50;;;13.90;1.00;;;14.60;80.99;99155.38;5080025;27;121923;-78
2022/09/21 10:27:33;;;;;;;2.95;1.58;;;13.90;1.00;;;14.45;80.53;99159.56;5065790;27;121585;-77
2022/09/21 10:30:02;;;;;;;3.50;1.52;;;13.80;1.00;;;14.27;82.04;99160.97;5080549;27;130873;-77
2022/09/21 10:32:31;;;;;;;2.55;1.55;;;13.70;1.00;;;14.22;82.39;99161.22;5080813;27;129608;-78
2022/09/21 10:35:18;;;;;;;1.83;1.45;;;13.70;1.00;;;14.48;82.13;99158.88;5081498;27;118839;-78